createdAt,value
2023-08-12T00:00:38.976Z,19.34
2023-08-12T00:03:05.562Z,19.32
2023-08-12T00:05:32.021Z,19.29
2023-08-12T00:07:58.703Z,19.20
2023-08-12T00:10:25.355Z,18.95
2023-08-12T00:12:52.302Z,18.98
2023-08-12T00:15:19.156Z,19.09
2023-08-12T00:17:46.765Z,19.08
2023-08-12T00:20:13.267Z,19.10
2023-08-12T00:22:39.763Z,19.10
2023-08-12T00:25:06.512Z,19.08
2023-08-12T00:27:32.943Z,18.88
2023-08-12T00:29:59.485Z,18.97
2023-08-12T00:32:26.134Z,19.03
2023-08-12T00:34:52.526Z,19.04
2023-08-12T00:37:19.059Z,19.05
2023-08-12T00:39:47.981Z,19.05
2023-08-12T00:42:15.818Z,19.02
2023-08-12T00:44:42.304Z,19.02
2023-08-12T00:47:09.586Z,19.01
2023-08-12T00:49:37.396Z,18.94
2023-08-12T00:52:03.810Z,18.86
2023-08-12T00:54:30.273Z,18.91
2023-08-12T00:56:59.173Z,18.92
2023-08-12T00:59:25.628Z,18.87
2023-08-12T01:01:52.100Z,18.87
2023-08-12T01:04:18.596Z,18.87
2023-08-12T01:06:45.607Z,18.89
2023-08-12T01:09:12.069Z,18.88
2023-08-12T01:11:38.569Z,18.86
2023-08-12T01:14:05.031Z,18.84
2023-08-12T01:16:31.449Z,18.82
2023-08-12T01:18:57.972Z,18.76
2023-08-12T01:21:24.440Z,18.77
2023-08-12T01:23:50.892Z,18.73
2023-08-12T01:26:17.391Z,18.69
2023-08-12T01:28:43.957Z,18.65
2023-08-12T01:31:10.759Z,18.61
2023-08-12T01:33:37.237Z,18.56
2023-08-12T01:36:04.433Z,18.53
2023-08-12T01:38:30.850Z,18.54
2023-08-12T01:40:58.240Z,18.51
2023-08-12T01:43:24.732Z,18.49
2023-08-12T01:45:51.612Z,18.38
2023-08-12T01:48:18.072Z,18.38
2023-08-12T01:50:44.615Z,18.40
2023-08-12T01:53:11.229Z,18.38
2023-08-12T01:55:37.856Z,18.35
2023-08-12T01:58:04.305Z,18.36
2023-08-12T02:00:30.734Z,18.34
2023-08-12T02:02:57.629Z,18.34
2023-08-12T02:05:24.145Z,18.33
2023-08-12T02:07:50.922Z,18.32
2023-08-12T02:10:17.418Z,18.32
2023-08-12T02:12:44.019Z,18.29
2023-08-12T02:15:10.458Z,18.28
2023-08-12T02:17:37.010Z,18.22
2023-08-12T02:20:05.273Z,18.19
2023-08-12T02:22:33.920Z,18.18
2023-08-12T02:25:00.614Z,18.15
2023-08-12T02:27:27.053Z,18.16
2023-08-12T02:29:53.718Z,18.17
2023-08-12T02:32:20.515Z,18.01
2023-08-12T02:34:47.154Z,18.04
2023-08-12T02:37:13.837Z,18.04
2023-08-12T02:39:40.459Z,18.02
2023-08-12T02:42:06.908Z,18.02
2023-08-12T02:44:34.441Z,17.95
2023-08-12T02:47:01.366Z,17.92
2023-08-12T02:49:28.382Z,17.93
2023-08-12T02:51:55.863Z,17.91
2023-08-12T02:54:22.381Z,17.89
2023-08-12T02:56:49.042Z,17.92
2023-08-12T02:59:15.686Z,17.89
2023-08-12T03:01:42.140Z,17.84
2023-08-12T03:04:08.606Z,17.85
2023-08-12T03:06:35.021Z,17.86
2023-08-12T03:09:01.855Z,17.84
2023-08-12T03:11:28.360Z,17.81
2023-08-12T03:13:55.821Z,17.78
2023-08-12T03:16:24.329Z,17.73
2023-08-12T03:18:51.170Z,17.72
2023-08-12T03:21:17.551Z,17.68
2023-08-12T03:23:44.186Z,17.65
2023-08-12T03:26:10.690Z,17.61
2023-08-12T03:28:38.300Z,17.61
2023-08-12T03:31:04.997Z,17.60
2023-08-12T03:33:32.232Z,17.59
2023-08-12T03:35:58.812Z,17.60
2023-08-12T03:38:25.288Z,17.57
2023-08-12T03:40:51.697Z,17.49
2023-08-12T03:43:18.171Z,17.50
2023-08-12T03:45:45.372Z,17.50
2023-08-12T03:48:11.839Z,17.51
2023-08-12T03:50:38.292Z,17.25
2023-08-12T03:53:04.784Z,17.25
2023-08-12T03:55:31.817Z,17.30
2023-08-12T03:57:58.248Z,17.31
2023-08-12T04:00:24.714Z,17.32
2023-08-12T04:02:51.268Z,17.36
2023-08-12T04:05:17.987Z,17.38
2023-08-12T04:07:44.538Z,17.40
2023-08-12T04:10:12.412Z,17.41
2023-08-12T04:12:38.845Z,17.36
2023-08-12T04:15:05.336Z,17.21
2023-08-12T04:17:31.885Z,17.26
2023-08-12T04:19:58.379Z,17.35
2023-08-12T04:22:24.819Z,17.58
2023-08-12T04:24:51.218Z,17.90
2023-08-12T04:27:17.845Z,18.09
2023-08-12T04:29:44.234Z,18.12
2023-08-12T04:32:10.780Z,17.86
2023-08-12T04:34:37.261Z,17.70
2023-08-12T04:37:03.717Z,17.65
2023-08-12T04:39:30.246Z,17.63
2023-08-12T04:41:56.674Z,17.54
2023-08-12T04:44:23.292Z,17.18
2023-08-12T04:46:50.103Z,17.14
2023-08-12T04:49:16.532Z,17.30
2023-08-12T04:51:42.991Z,17.41
2023-08-12T04:54:09.410Z,17.46
2023-08-12T04:56:36.513Z,17.53
2023-08-12T04:59:03.002Z,17.56
2023-08-12T05:01:32.218Z,17.60
2023-08-12T05:03:58.717Z,17.62
2023-08-12T05:06:25.360Z,17.63
2023-08-12T05:08:52.023Z,17.65
2023-08-12T05:11:18.710Z,17.70
2023-08-12T05:13:47.784Z,17.68
2023-08-12T05:16:15.672Z,17.70
2023-08-12T05:18:42.444Z,17.71
2023-08-12T05:21:08.866Z,17.72
2023-08-12T05:23:36.255Z,17.78
2023-08-12T05:26:02.740Z,17.82
2023-08-12T05:28:29.273Z,17.86
2023-08-12T05:30:55.686Z,17.90
2023-08-12T05:33:22.202Z,17.94
2023-08-12T05:35:48.837Z,17.95
2023-08-12T05:38:15.551Z,17.97
2023-08-12T05:40:41.971Z,17.99
2023-08-12T05:43:08.765Z,18.03
2023-08-12T05:45:35.267Z,18.06
2023-08-12T05:48:02.162Z,18.11
2023-08-12T05:50:28.817Z,18.11
2023-08-12T05:52:55.517Z,18.13
2023-08-12T05:55:25.059Z,18.17
2023-08-12T05:57:51.563Z,18.19
2023-08-12T06:00:18.059Z,18.29
2023-08-12T06:02:53.126Z,18.37
2023-08-12T06:05:20.000Z,18.42
2023-08-12T06:07:46.806Z,18.48
2023-08-12T06:10:13.917Z,18.58
2023-08-12T06:12:42.567Z,18.62
2023-08-12T06:15:12.022Z,18.64
2023-08-12T06:17:38.683Z,18.67
2023-08-12T06:20:05.561Z,18.69
2023-08-12T06:22:40.328Z,18.74
2023-08-12T06:25:07.013Z,18.68
2023-08-12T06:27:33.404Z,18.73
2023-08-12T06:30:00.145Z,18.79
2023-08-12T06:32:26.593Z,18.89
2023-08-12T06:34:53.056Z,19.03
2023-08-12T06:37:19.592Z,19.08
2023-08-12T06:39:46.003Z,19.16
2023-08-12T06:42:12.502Z,19.24
2023-08-12T06:44:39.103Z,19.32
2023-08-12T06:47:05.757Z,19.27
2023-08-12T06:49:32.284Z,19.34
2023-08-12T06:51:59.158Z,19.41
2023-08-12T06:54:25.541Z,19.41
2023-08-12T06:56:52.122Z,19.44
2023-08-12T06:59:18.506Z,19.51
2023-08-12T07:01:45.245Z,19.60
2023-08-12T07:04:11.797Z,19.60
2023-08-12T07:06:38.179Z,19.64
2023-08-12T07:09:04.803Z,19.65
2023-08-12T07:11:31.282Z,19.68
2023-08-12T07:13:57.851Z,19.73
2023-08-12T07:16:24.718Z,19.77
2023-08-12T07:18:51.114Z,19.78
2023-08-12T07:21:17.662Z,19.79
2023-08-12T07:23:51.420Z,19.82
2023-08-12T07:26:28.398Z,19.75
2023-08-12T07:28:54.834Z,19.86
2023-08-12T07:31:21.362Z,19.92
2023-08-12T07:33:47.950Z,19.86
2023-08-12T07:36:14.583Z,19.83
2023-08-12T07:38:41.195Z,19.91
2023-08-12T07:41:07.574Z,19.96
2023-08-12T07:43:34.237Z,19.91
2023-08-12T07:46:09.395Z,19.74
2023-08-12T07:48:36.869Z,19.77
2023-08-12T07:51:03.488Z,19.85
2023-08-12T07:53:29.905Z,19.96
2023-08-12T07:55:56.314Z,19.94
2023-08-12T07:58:22.809Z,19.94
2023-08-12T08:00:50.280Z,19.97
2023-08-12T08:03:16.932Z,19.99
2023-08-12T08:05:43.398Z,19.98
2023-08-12T08:08:09.952Z,20.01
2023-08-12T08:10:37.401Z,20.01
2023-08-12T08:13:05.938Z,20.02
2023-08-12T08:15:32.347Z,20.04
2023-08-12T08:17:59.544Z,20.04
2023-08-12T08:20:28.632Z,20.08
2023-08-12T08:22:55.084Z,20.14
2023-08-12T08:25:24.039Z,20.14
2023-08-12T08:27:50.973Z,20.08
2023-08-12T08:30:17.687Z,19.98
2023-08-12T08:32:44.140Z,20.15
2023-08-12T08:35:10.705Z,20.22
2023-08-12T08:37:38.235Z,20.32
2023-08-12T08:40:04.694Z,20.18
2023-08-12T08:42:32.171Z,20.28
2023-08-12T08:44:58.756Z,20.31
2023-08-12T08:47:25.355Z,20.32
2023-08-12T08:49:51.778Z,20.34
2023-08-12T08:52:18.292Z,20.44
2023-08-12T08:54:46.583Z,20.36
2023-08-12T08:57:16.752Z,20.41
2023-08-12T08:59:58.185Z,20.42
2023-08-12T09:02:25.246Z,20.34
2023-08-12T09:04:51.784Z,20.39
2023-08-12T09:07:19.250Z,20.50
2023-08-12T09:09:45.659Z,20.51
2023-08-12T09:12:12.665Z,20.56
2023-08-12T09:14:39.342Z,20.55
2023-08-12T09:17:06.041Z,20.67
2023-08-12T09:19:32.747Z,20.64
2023-08-12T09:22:01.342Z,20.63
2023-08-12T09:24:28.011Z,20.69
2023-08-12T09:26:54.486Z,20.62
2023-08-12T09:29:20.975Z,20.73
2023-08-12T09:31:48.205Z,20.83
2023-08-12T09:34:14.768Z,20.85
2023-08-12T09:36:41.227Z,20.79
2023-08-12T09:39:08.060Z,20.81
2023-08-12T09:41:38.720Z,20.75
2023-08-12T09:44:06.114Z,20.83
2023-08-12T09:46:32.564Z,20.95
2023-08-12T09:48:59.037Z,21.02
2023-08-12T09:51:25.551Z,21.03
2023-08-12T09:53:55.262Z,21.16
2023-08-12T09:56:21.778Z,21.23
2023-08-12T09:58:53.613Z,21.23
2023-08-12T10:01:20.487Z,21.20
2023-08-12T10:03:48.088Z,21.17
2023-08-12T10:06:17.173Z,21.27
2023-08-12T10:08:43.733Z,21.38
2023-08-12T10:11:13.349Z,21.37
2023-08-12T10:13:40.395Z,21.44
2023-08-12T10:16:07.863Z,21.45
2023-08-12T10:18:37.160Z,21.45
2023-08-12T10:21:03.657Z,21.55
2023-08-12T10:23:30.099Z,21.60
2023-08-12T10:25:56.546Z,21.68
2023-08-12T10:28:24.485Z,21.80
2023-08-12T10:30:51.451Z,21.89
2023-08-12T10:33:18.563Z,21.90
2023-08-12T10:35:45.055Z,21.87
2023-08-12T10:38:11.572Z,21.94
2023-08-12T10:40:38.074Z,21.98
2023-08-12T10:43:04.552Z,21.99
2023-08-12T10:45:31.585Z,22.05
2023-08-12T10:47:58.258Z,22.03
2023-08-12T10:50:24.901Z,22.05
2023-08-12T10:52:54.123Z,22.21
2023-08-12T10:55:20.606Z,22.27
2023-08-12T10:57:52.452Z,22.27
2023-08-12T11:00:20.798Z,22.32
2023-08-12T11:02:48.161Z,22.43
2023-08-12T11:05:14.807Z,22.51
2023-08-12T11:07:43.387Z,22.50
2023-08-12T11:10:09.959Z,22.59
2023-08-12T11:12:36.405Z,22.58
2023-08-12T11:15:02.812Z,22.55
2023-08-12T11:17:29.988Z,22.75
2023-08-12T11:19:57.163Z,22.75
2023-08-12T11:22:26.208Z,22.85
2023-08-12T11:24:52.655Z,22.80
2023-08-12T11:27:19.191Z,22.92
2023-08-12T11:29:45.796Z,22.83
2023-08-12T11:32:12.854Z,22.98
2023-08-12T11:34:39.713Z,22.95
2023-08-12T11:37:06.912Z,23.13
2023-08-12T11:39:33.509Z,23.17
2023-08-12T11:42:00.317Z,23.29
2023-08-12T11:44:26.726Z,23.29
2023-08-12T11:46:54.999Z,23.28
2023-08-12T11:49:23.901Z,23.37
2023-08-12T11:51:50.861Z,23.41
2023-08-12T11:54:18.604Z,23.29
2023-08-12T11:56:45.915Z,23.51
2023-08-12T11:59:12.401Z,23.53
2023-08-12T12:01:39.017Z,23.56
2023-08-12T12:04:05.567Z,23.67
2023-08-12T12:06:32.084Z,23.78
2023-08-12T12:08:59.885Z,23.72
2023-08-12T12:11:26.612Z,23.79
2023-08-12T12:13:53.306Z,23.84
2023-08-12T12:16:19.827Z,23.82
2023-08-12T12:18:46.288Z,23.74
2023-08-12T12:21:12.964Z,24.01
2023-08-12T12:23:39.522Z,23.82
2023-08-12T12:26:05.966Z,24.02
2023-08-12T12:28:32.478Z,24.08
2023-08-12T12:30:59.058Z,24.11
2023-08-12T12:33:25.832Z,24.14
2023-08-12T12:35:58.642Z,24.22
2023-08-12T12:38:27.070Z,24.24
2023-08-12T12:40:53.832Z,24.37
2023-08-12T12:43:20.699Z,24.46
2023-08-12T12:45:47.251Z,24.57
2023-08-12T12:48:13.803Z,24.63
2023-08-12T12:50:40.257Z,24.58
2023-08-12T12:53:06.709Z,24.45
2023-08-12T12:55:33.293Z,24.66
2023-08-12T12:57:59.688Z,24.67
2023-08-12T13:00:26.176Z,24.65
2023-08-12T13:02:53.222Z,24.76
2023-08-12T13:05:21.788Z,24.84
2023-08-12T13:07:48.210Z,24.84
2023-08-12T13:10:14.715Z,24.78
2023-08-12T13:12:42.497Z,24.84
2023-08-12T13:15:09.478Z,24.99
2023-08-12T13:17:35.971Z,25.04
2023-08-12T13:20:02.594Z,25.07
2023-08-12T13:22:28.997Z,25.16
2023-08-12T13:24:55.675Z,25.19
2023-08-12T13:27:22.817Z,25.24
2023-08-12T13:29:50.305Z,25.27
2023-08-12T13:32:16.899Z,25.40
2023-08-12T13:34:43.295Z,25.33
2023-08-12T13:37:10.230Z,25.33
2023-08-12T13:39:36.609Z,25.48
2023-08-12T13:42:03.321Z,25.55
2023-08-12T13:44:29.745Z,25.60
2023-08-12T13:46:56.221Z,25.69
2023-08-12T13:49:23.031Z,25.73
2023-08-12T13:51:50.523Z,25.85
2023-08-12T13:54:17.097Z,25.94
2023-08-12T13:56:43.646Z,25.99
2023-08-12T13:59:10.073Z,25.76
2023-08-12T14:01:36.698Z,26.01
2023-08-12T14:04:04.189Z,26.08
2023-08-12T14:06:31.083Z,26.18
2023-08-12T14:08:58.014Z,26.26
2023-08-12T14:11:24.646Z,26.28
2023-08-12T14:13:51.538Z,26.37
2023-08-12T14:16:18.009Z,26.34
2023-08-12T14:18:44.948Z,26.26
2023-08-12T14:21:11.406Z,26.50
2023-08-12T14:23:38.273Z,26.43
2023-08-12T14:26:04.761Z,26.36
2023-08-12T14:28:31.338Z,26.49
2023-08-12T14:30:58.201Z,26.64
2023-08-12T14:33:24.772Z,26.68
2023-08-12T14:35:51.302Z,26.80
2023-08-12T14:38:17.672Z,26.86
2023-08-12T14:40:44.770Z,26.88
2023-08-12T14:43:11.268Z,26.90
2023-08-12T14:45:37.686Z,26.97
2023-08-12T14:48:04.174Z,27.09
2023-08-12T14:50:32.951Z,27.03
2023-08-12T14:52:59.657Z,27.09
2023-08-12T14:55:26.188Z,27.09
2023-08-12T14:57:52.843Z,27.23
2023-08-12T15:00:19.473Z,27.25
2023-08-12T15:02:45.962Z,27.30
2023-08-12T15:05:12.596Z,27.30
2023-08-12T15:07:39.023Z,27.43
2023-08-12T15:10:06.019Z,27.40
2023-08-12T15:12:32.632Z,27.05
2023-08-12T15:14:59.118Z,27.36
2023-08-12T15:17:25.730Z,27.37
2023-08-12T15:19:52.521Z,27.38
2023-08-12T15:22:18.930Z,27.31
2023-08-12T15:24:46.362Z,27.27
2023-08-12T15:27:13.166Z,27.31
2023-08-12T15:29:39.939Z,27.44
2023-08-12T15:32:06.495Z,27.53
2023-08-12T15:34:33.136Z,27.59
2023-08-12T15:36:59.604Z,27.50
2023-08-12T15:39:26.097Z,27.66
2023-08-12T15:41:52.484Z,27.74
2023-08-12T15:44:18.926Z,27.76
2023-08-12T15:46:45.331Z,27.79
2023-08-12T15:49:11.943Z,27.80
2023-08-12T15:51:38.691Z,27.90
2023-08-12T15:54:05.120Z,27.92
2023-08-12T15:56:32.383Z,27.87
2023-08-12T15:59:00.822Z,27.84
2023-08-12T16:01:27.285Z,27.89
2023-08-12T16:03:54.338Z,27.79
2023-08-12T16:06:20.871Z,27.97
2023-08-12T16:08:56.795Z,27.87
2023-08-12T16:11:32.131Z,27.88
2023-08-12T16:13:58.558Z,27.93
2023-08-12T16:16:27.570Z,27.80
2023-08-12T16:18:54.086Z,27.75
2023-08-12T16:21:20.569Z,27.80
2023-08-12T16:23:47.104Z,27.90
2023-08-12T16:26:13.548Z,28.00
2023-08-12T16:28:39.962Z,28.02
2023-08-12T16:31:06.727Z,27.96
2023-08-12T16:33:33.353Z,28.00
2023-08-12T16:35:59.766Z,27.93
2023-08-12T16:38:26.212Z,27.90
2023-08-12T16:40:52.649Z,27.94
2023-08-12T16:43:19.104Z,27.82
2023-08-12T16:45:45.632Z,27.70
2023-08-12T16:48:12.572Z,27.72
2023-08-12T16:50:39.031Z,27.78
2023-08-12T16:53:05.551Z,27.73
2023-08-12T16:55:31.982Z,27.67
2023-08-12T16:57:58.421Z,27.58
2023-08-12T17:00:24.892Z,27.23
2023-08-12T17:02:51.649Z,27.31
2023-08-12T17:05:18.111Z,27.15
2023-08-12T17:07:44.666Z,27.14
2023-08-12T17:10:11.153Z,27.17
2023-08-12T17:12:37.584Z,27.11
2023-08-12T17:15:04.233Z,26.88
2023-08-12T17:17:30.761Z,26.89
2023-08-12T17:19:57.217Z,26.82
2023-08-12T17:22:25.370Z,26.81
2023-08-12T17:24:52.300Z,26.71
2023-08-12T17:27:18.713Z,26.57
2023-08-12T17:29:45.225Z,26.50
2023-08-12T17:32:11.946Z,26.44
2023-08-12T17:34:38.902Z,26.43
2023-08-12T17:37:05.682Z,26.41
2023-08-12T17:39:32.037Z,26.48
2023-08-12T17:41:58.484Z,26.31
2023-08-12T17:44:25.247Z,26.34
2023-08-12T17:46:51.764Z,26.27
2023-08-12T17:49:18.475Z,26.25
2023-08-12T17:51:44.921Z,26.07
2023-08-12T17:54:11.584Z,25.96
2023-08-12T17:56:38.386Z,26.06
2023-08-12T17:59:04.769Z,26.04
2023-08-12T18:01:31.223Z,25.90
2023-08-12T18:03:58.295Z,25.84
2023-08-12T18:06:24.932Z,25.86
2023-08-12T18:08:51.389Z,25.84
2023-08-12T18:11:18.105Z,25.74
2023-08-12T18:13:44.615Z,25.70
2023-08-12T18:16:11.106Z,25.64
2023-08-12T18:18:37.691Z,25.75
2023-08-12T18:21:06.514Z,25.76
2023-08-12T18:23:32.955Z,25.83
2023-08-12T18:26:01.753Z,25.80
2023-08-12T18:28:28.475Z,25.81
2023-08-12T18:30:55.122Z,25.75
2023-08-12T18:33:21.583Z,25.76
2023-08-12T18:35:48.601Z,25.65
2023-08-12T18:38:17.415Z,25.51
2023-08-12T18:40:43.914Z,25.57
2023-08-12T18:43:11.869Z,25.57
2023-08-12T18:45:38.876Z,25.40
2023-08-12T18:48:05.873Z,25.51
2023-08-12T18:50:34.197Z,25.35
2023-08-12T18:53:02.839Z,25.40
2023-08-12T18:55:30.277Z,25.34
2023-08-12T18:57:57.027Z,25.27
2023-08-12T19:00:23.778Z,25.24
2023-08-12T19:02:50.919Z,25.29
2023-08-12T19:05:17.771Z,25.29
2023-08-12T19:07:44.304Z,25.32
2023-08-12T19:10:10.976Z,25.28
2023-08-12T19:12:37.471Z,25.26
2023-08-12T19:15:03.989Z,25.29
2023-08-12T19:17:30.576Z,25.36
2023-08-12T19:19:57.328Z,25.36
2023-08-12T19:22:24.779Z,25.31
2023-08-12T19:24:51.806Z,25.26
2023-08-12T19:27:18.737Z,25.26
2023-08-12T19:29:45.728Z,25.23
2023-08-12T19:32:16.221Z,25.24
2023-08-12T19:34:44.156Z,25.26
2023-08-12T19:37:11.275Z,25.29
2023-08-12T19:39:38.566Z,25.27
2023-08-12T19:42:05.792Z,25.22
2023-08-12T19:44:35.908Z,25.23
2023-08-12T19:47:04.932Z,25.14
2023-08-12T19:49:32.273Z,25.11
2023-08-12T19:52:00.552Z,25.13
2023-08-12T19:54:27.685Z,25.10
2023-08-12T19:56:54.803Z,25.09
2023-08-12T19:59:23.035Z,25.07
2023-08-12T20:01:50.234Z,24.99
2023-08-12T20:04:21.703Z,24.94
2023-08-12T20:06:51.990Z,24.85
2023-08-12T20:09:20.126Z,24.81
2023-08-12T20:11:49.749Z,24.77
2023-08-12T20:14:16.837Z,24.67
2023-08-12T20:16:45.982Z,24.71
2023-08-12T20:19:15.448Z,24.56
2023-08-12T20:21:43.543Z,24.63
2023-08-12T20:24:12.897Z,24.67
2023-08-12T20:26:40.268Z,24.69
2023-08-12T20:29:07.542Z,24.67
2023-08-12T20:31:34.447Z,24.68
2023-08-12T20:34:02.385Z,24.68
2023-08-12T20:36:30.148Z,24.67
2023-08-12T20:39:02.618Z,24.63
2023-08-12T20:41:29.857Z,24.61
2023-08-12T20:43:58.916Z,24.55
2023-08-12T20:46:26.412Z,24.52
2023-08-12T20:48:53.795Z,24.53
2023-08-12T20:51:21.016Z,24.48
2023-08-12T20:53:48.125Z,24.43
2023-08-12T20:56:15.725Z,24.38
2023-08-12T20:58:42.802Z,24.34
2023-08-12T21:01:09.372Z,24.30
2023-08-12T21:03:35.885Z,24.26
2023-08-12T21:06:02.489Z,24.20
2023-08-12T21:08:29.615Z,24.19
2023-08-12T21:10:56.059Z,24.16
2023-08-12T21:13:22.652Z,24.13
2023-08-12T21:15:49.119Z,24.08
2023-08-12T21:18:15.563Z,24.05
2023-08-12T21:20:41.994Z,24.01
2023-08-12T21:23:10.140Z,23.97
2023-08-12T21:25:36.597Z,23.91
2023-08-12T21:28:03.080Z,23.85
2023-08-12T21:30:29.655Z,23.83
2023-08-12T21:32:56.252Z,23.77
2023-08-12T21:35:23.008Z,23.75
2023-08-12T21:37:50.602Z,23.73
2023-08-12T21:40:18.292Z,23.70
2023-08-12T21:42:44.775Z,23.42
2023-08-12T21:45:11.733Z,23.25
2023-08-12T21:47:38.230Z,23.10
2023-08-12T21:50:04.737Z,23.21
2023-08-12T21:52:31.131Z,23.17
2023-08-12T21:54:58.849Z,23.18
2023-08-12T21:57:25.273Z,23.21
2023-08-12T21:59:51.884Z,23.07
2023-08-12T22:02:19.856Z,22.91
2023-08-12T22:04:48.461Z,22.74
2023-08-12T22:07:14.860Z,22.65
2023-08-12T22:09:41.513Z,22.61
2023-08-12T22:12:08.517Z,22.67
2023-08-12T22:14:35.314Z,22.57
2023-08-12T22:17:01.894Z,22.65
2023-08-12T22:19:28.503Z,22.61
2023-08-12T22:21:59.787Z,22.65
2023-08-12T22:24:33.002Z,22.66
2023-08-12T22:26:59.499Z,21.89
2023-08-12T22:29:25.904Z,22.09
2023-08-12T22:31:52.418Z,22.31
2023-08-12T22:34:18.860Z,22.45
2023-08-12T22:36:45.439Z,22.56
2023-08-12T22:39:12.140Z,22.38
2023-08-12T22:41:38.521Z,22.43
2023-08-12T22:44:05.020Z,22.51
2023-08-12T22:46:31.982Z,22.56
2023-08-12T22:48:58.643Z,22.58
2023-08-12T22:51:25.069Z,22.54
2023-08-12T22:53:51.913Z,22.37
2023-08-12T22:56:18.859Z,22.19
2023-08-12T22:58:45.780Z,22.32
2023-08-12T23:01:12.553Z,22.34
2023-08-12T23:03:39.092Z,22.12
2023-08-12T23:06:05.818Z,22.07
2023-08-12T23:08:32.374Z,22.15
2023-08-12T23:11:01.379Z,22.18
2023-08-12T23:13:28.024Z,22.15
2023-08-12T23:15:54.543Z,22.17
2023-08-12T23:18:20.969Z,22.08
2023-08-12T23:20:47.777Z,22.15
2023-08-12T23:23:14.235Z,22.10
2023-08-12T23:25:40.970Z,21.91
2023-08-12T23:28:08.574Z,21.98
2023-08-12T23:30:35.287Z,22.06
2023-08-12T23:33:05.000Z,21.80
2023-08-12T23:35:31.541Z,21.62
2023-08-12T23:37:58.020Z,21.73
2023-08-12T23:40:24.778Z,21.84
2023-08-12T23:42:51.392Z,21.91
2023-08-12T23:45:17.962Z,21.72
2023-08-12T23:47:44.952Z,21.86
2023-08-12T23:50:14.273Z,21.93
2023-08-12T23:52:40.738Z,21.74
2023-08-12T23:55:07.830Z,21.71
2023-08-12T23:57:34.247Z,21.74
